Time;durP1;ratioP1;P1;durP2;ratioP2;P2;SDS_P1;SDS_P2;PMS_P1;PMS_P2;Temp;Humidity;BMP_temperature;BMP_pressure;BME280_temperature;BME280_humidity;BME280_pressure;Samples;Min_cycle;Max_cycle;Signal;HPM_P1;HPM_P2
2022/11/06 00:00:40;;;;;;;63.72;33.83;;;;;;;13.22;60.17;94789.03;5072643;28;20048;-74
2022/11/06 00:03:05;;;;;;;67.35;33.83;;;;;;;13.36;60.37;94813.75;5072245;28;20483;-75
2022/11/06 00:08:32;;;;;;;63.33;33.45;;;;;;;13.36;59.95;94811.09;5061096;28;20043;-74
2022/11/06 00:10:58;;;;;;;64.57;31.48;;;;;;;13.28;60.38;94821.66;5060817;28;20520;-74
2022/11/06 00:13:24;;;;;;;62.13;32.17;;;;;;;12.89;61.00;94772.38;5072661;28;20121;-74
2022/11/06 00:15:49;;;;;;;64.68;31.42;;;;;;;13.14;60.57;94797.72;5065159;28;20064;-74
2022/11/06 00:18:14;;;;;;;63.17;32.05;;;;;;;13.26;60.88;94814.00;5060552;28;20112;-74
2022/11/06 00:20:40;;;;;;;65.32;30.63;;;;;;;13.26;60.76;94806.00;5075067;28;20043;-74
2022/11/06 00:23:05;;;;;;;65.03;31.50;;;;;;;13.22;61.11;94813.00;5055091;28;20044;-73
2022/11/06 00:25:31;;;;;;;64.43;32.50;;;;;;;12.87;61.09;94758.59;5067014;28;20053;-74
2022/11/06 00:27:56;;;;;;;56.42;31.05;;;;;;;13.28;60.94;94806.47;5072399;28;20047;-74
2022/11/06 00:30:22;;;;;;;65.22;32.05;;;;;;;13.00;61.65;94788.94;5071468;28;20417;-74
2022/11/06 00:32:47;;;;;;;61.70;32.63;;;;;;;13.14;61.24;94824.34;5071056;28;20409;-74
2022/11/06 00:35:13;;;;;;;53.45;31.73;;;;;;;13.18;61.48;94816.56;5053973;28;20035;-74
2022/11/06 00:37:38;;;;;;;68.03;30.70;;;;;;;13.04;61.56;94784.63;5072111;28;20112;-74
2022/11/06 00:40:04;;;;;;;65.00;31.60;;;;;;;13.06;61.44;94785.09;5075658;28;20028;-73
2022/11/06 00:42:30;;;;;;;53.40;29.35;;;;;;;13.19;61.57;94808.28;5084120;28;20028;-74
2022/11/06 00:44:55;;;;;;;59.13;29.42;;;;;;;12.97;61.62;94774.34;5075662;28;20039;-74
2022/11/06 00:47:21;;;;;;;59.22;30.85;;;;;;;12.95;61.76;94776.53;5068911;28;20033;-74
2022/11/06 00:49:46;;;;;;;55.08;30.42;;;;;;;12.75;61.47;94742.34;5033215;28;20115;-74
2022/11/06 00:52:12;;;;;;;53.58;29.85;;;;;;;12.98;62.32;94791.09;5079097;28;20509;-74
2022/11/06 00:54:37;;;;;;;63.00;29.58;;;;;;;12.83;62.80;94812.69;5061827;28;20025;-74
2022/11/06 00:57:03;;;;;;;59.08;31.25;;;;;;;12.90;62.50;94795.25;5044512;28;20025;-74
2022/11/06 00:59:28;;;;;;;63.72;32.17;;;;;;;12.87;62.95;94795.88;5041008;28;20024;-74
2022/11/06 01:01:54;;;;;;;59.80;31.00;;;;;;;12.90;62.85;94799.78;5072809;28;20040;-74
2022/11/06 01:04:22;;;;;;;57.50;31.70;;;;;;;12.91;62.82;94799.50;5057085;28;20059;-74
2022/11/06 01:06:50;;;;;;;57.13;30.42;;;;;;;12.81;62.51;94789.06;5067416;28;20032;-74
2022/11/06 01:09:18;;;;;;;62.85;31.13;;;;;;;12.67;62.81;94767.75;5071087;28;20033;-74
2022/11/06 01:11:47;;;;;;;55.67;29.95;;;;;;;12.92;62.71;94801.06;5034760;28;20159;-73
2022/11/06 01:14:13;;;;;;;60.53;29.75;;;;;;;12.82;63.15;94792.50;5066307;28;20076;-74
2022/11/06 01:16:39;;;;;;;54.05;29.45;;;;;;;12.79;62.99;94785.13;5064989;28;20036;-74
2022/11/06 01:19:06;;;;;;;62.28;29.63;;;;;;;12.90;62.74;94784.59;5065513;28;20378;-74
2022/11/06 01:21:35;;;;;;;56.78;29.27;;;;;;;12.70;62.51;94753.88;5073427;28;20466;-74
2022/11/06 01:24:04;;;;;;;68.32;30.88;;;;;;;12.67;62.69;94757.13;5071889;28;20410;-73
2022/11/06 01:26:29;;;;;;;59.58;30.15;;;;;;;12.56;62.76;94750.44;5061083;28;20508;-74
2022/11/06 01:28:55;;;;;;;57.38;30.60;;;;;;;12.50;62.54;94741.00;5058120;28;20043;-74
2022/11/06 01:31:25;;;;;;;54.67;30.08;;;;;;;12.84;62.52;94785.00;5057452;28;20036;-73
2022/11/06 01:33:51;;;;;;;52.60;30.52;;;;;;;12.84;62.71;94785.00;5058668;28;20108;-73
2022/11/06 01:36:19;;;;;;;59.53;30.42;;;;;;;12.87;62.57;94785.22;5057717;28;20127;-74
2022/11/06 01:38:47;;;;;;;52.90;27.35;;;;;;;12.81;62.76;94786.41;5055904;28;20075;-73
2022/11/06 01:41:34;;;;;;;57.80;28.27;;;;;;;12.72;62.88;94764.22;5054587;28;20037;-74
2022/11/06 01:44:25;;;;;;;56.45;28.42;;;;;;;12.87;62.76;94781.78;5019380;28;20040;-74
2022/11/06 01:46:50;;;;;;;53.35;26.77;;;;;;;12.11;63.21;94680.31;5032770;28;20112;-73
2022/11/06 01:49:16;;;;;;;45.53;23.45;;;;;;;12.71;63.75;94787.38;5053904;28;20024;-74
2022/11/06 01:51:55;;;;;;;53.88;24.95;;;;;;;12.81;63.35;94782.97;5047145;28;20045;-73
2022/11/06 01:54:23;;;;;;;45.55;23.02;;;;;;;11.79;64.49;94664.41;5054177;28;20507;-74
2022/11/06 01:56:51;;;;;;;42.97;21.55;;;;;;;12.69;63.93;94789.56;5053545;28;20487;-74
2022/11/06 01:59:20;;;;;;;43.13;20.13;;;;;;;12.63;64.60;94789.94;5021173;28;20026;-74
2022/11/06 02:01:46;;;;;;;38.67;20.33;;;;;;;12.75;64.26;94787.56;5046930;28;20037;-73
2022/11/06 02:04:17;;;;;;;48.88;19.55;;;;;;;12.80;63.90;94789.38;5035015;28;20034;-73
2022/11/06 02:06:44;;;;;;;44.67;19.23;;;;;;;12.79;63.68;94774.47;5048176;28;20033;-74
2022/11/06 02:09:11;;;;;;;32.85;19.40;;;;;;;12.92;63.79;94782.44;5051433;28;20048;-74
2022/11/06 02:11:45;;;;;;;40.80;18.10;;;;;;;12.48;63.45;94715.75;5052312;28;20178;-74
2022/11/06 02:14:37;;;;;;;39.22;16.65;;;;;;;12.93;63.57;94776.03;5051730;28;20022;-74
2022/11/06 02:17:28;;;;;;;42.13;20.67;;;;;;;12.98;63.48;94780.47;5050600;28;20153;-74
2022/11/06 02:20:06;;;;;;;37.25;18.23;;;;;;;13.02;63.34;94782.25;5061986;28;20051;-74
2022/11/06 02:22:37;;;;;;;36.10;17.42;;;;;;;13.05;63.03;94778.19;5069341;28;20116;-74
2022/11/06 02:25:40;;;;;;;38.33;17.67;;;;;;;12.67;63.08;94729.72;5073824;28;20044;-74
2022/11/06 02:28:20;;;;;;;38.70;18.08;;;;;;;12.55;63.59;94719.59;5080251;28;20033;-74
2022/11/06 02:30:47;;;;;;;31.02;16.38;;;;;;;13.01;63.32;94769.22;5058859;28;20020;-74
2022/11/06 02:33:18;;;;;;;38.10;17.98;;;;;;;12.60;63.09;94718.69;5069697;28;20115;-74
2022/11/06 02:35:46;;;;;;;34.63;17.20;;;;;;;13.01;63.10;94772.69;5052173;28;20024;-74
2022/11/06 02:38:17;;;;;;;35.55;17.85;;;;;;;12.76;62.75;94728.75;5070414;28;20037;-73
2022/11/06 02:40:48;;;;;;;31.50;17.15;;;;;;;12.63;62.84;94716.25;5070095;28;20028;-73
2022/11/06 02:43:15;;;;;;;30.70;16.92;;;;;;;12.77;62.58;94734.84;5053744;28;20037;-74
2022/11/06 02:45:49;;;;;;;37.50;16.63;;;;;;;13.08;62.42;94782.94;5072870;28;20391;-74
2022/11/06 02:48:20;;;;;;;32.35;16.40;;;;;;;12.90;63.06;94792.59;5055598;28;20076;-75
2022/11/06 02:50:49;;;;;;;30.23;16.92;;;;;;;12.55;62.69;94718.81;5067334;28;20506;-75
2022/11/06 02:53:16;;;;;;;29.65;15.35;;;;;;;13.01;62.62;94779.88;5056514;28;20498;-75
2022/11/06 02:55:49;;;;;;;33.90;15.45;;;;;;;12.75;62.90;94745.00;5072464;28;20051;-75
2022/11/06 02:58:38;;;;;;;31.25;15.98;;;;;;;13.01;62.77;94799.31;5072856;28;20043;-75
2022/11/06 03:01:33;;;;;;;33.25;16.25;;;;;;;12.90;62.67;94770.50;5072887;28;20387;-76
2022/11/06 03:04:05;;;;;;;31.20;15.63;;;;;;;13.01;63.19;94806.50;5072023;28;20036;-76
2022/11/06 03:07:00;;;;;;;36.33;15.82;;;;;;;12.96;63.13;94804.75;5054520;28;20036;-76
2022/11/06 03:09:30;;;;;;;30.25;16.05;;;;;;;12.62;62.76;94773.19;5070702;28;20104;-76
2022/11/06 03:12:27;;;;;;;27.55;14.30;;;;;;;12.85;63.19;94803.34;5063120;28;20029;-76
2022/11/06 03:15:02;;;;;;;36.38;15.38;;;;;;;12.90;63.28;94803.25;5067124;28;20503;-76
2022/11/06 03:17:42;;;;;;;29.85;14.60;;;;;;;12.91;63.46;94810.16;5054306;28;20044;-76
2022/11/06 03:20:40;;;;;;;23.80;13.50;;;;;;;12.36;63.60;94738.31;5053785;28;20036;-76
2022/11/06 03:23:24;;;;;;;26.98;13.98;;;;;;;12.86;64.14;94817.44;5072260;28;20484;-76
2022/11/06 03:26:08;;;;;;;23.38;13.57;;;;;;;12.70;63.79;94798.31;5042632;28;20110;-76
2022/11/06 03:28:50;;;;;;;23.15;12.60;;;;;;;12.83;64.03;94818.81;5067080;28;20044;-76
2022/11/06 03:31:23;;;;;;;27.13;13.02;;;;;;;12.28;64.80;94770.13;5072262;28;20414;-76
2022/11/06 03:33:58;;;;;;;26.33;13.07;;;;;;;12.14;65.65;94775.41;5072277;28;20107;-76
2022/11/06 03:36:29;;;;;;;25.35;13.07;;;;;;;12.38;66.16;94836.41;5071977;28;20676;-76
2022/11/06 03:39:00;;;;;;;24.58;12.43;;;;;;;12.03;66.79;94781.97;5072315;28;20028;-76
2022/11/06 03:41:46;;;;;;;27.83;11.95;;;;;;;12.50;66.19;94841.28;5054407;28;20486;-76
2022/11/06 03:44:16;;;;;;;24.08;13.35;;;;;;;12.58;65.65;94838.72;5055034;28;20040;-76
2022/11/06 03:46:49;;;;;;;23.85;12.88;;;;;;;12.28;65.27;94772.78;5052859;28;20143;-76
2022/11/06 03:49:20;;;;;;;23.65;11.98;;;;;;;12.45;65.60;94804.91;5052574;28;20032;-76
2022/11/06 03:51:56;;;;;;;23.83;11.75;;;;;;;12.72;65.46;94820.09;5070733;28;20029;-76
2022/11/06 03:54:29;;;;;;;34.63;12.63;;;;;;;12.75;65.17;94819.50;5068025;28;20024;-76
2022/11/06 03:57:01;;;;;;;24.55;12.20;;;;;;;12.26;65.45;94745.69;5063264;28;20792;-76
2022/11/06 03:59:33;;;;;;;25.00;10.52;;;;;;;12.57;65.18;94785.81;5064098;28;20483;-76
2022/11/06 04:02:00;;;;;;;20.38;11.30;;;;;;;12.75;65.40;94836.25;5064175;28;20028;-76
2022/11/06 04:04:46;;;;;;;26.92;12.73;;;;;;;12.79;65.22;94831.16;5071160;28;20098;-76
2022/11/06 04:07:21;;;;;;;26.27;12.23;;;;;;;12.77;65.49;94834.09;5071287;28;20464;-76
2022/11/06 04:15:34;;;;;;;30.92;12.10;;;;;;;11.93;67.23;94724.47;5040089;28;20040;-76
2022/11/06 04:17:59;;;;;;;25.88;12.23;;;;;;;12.56;67.72;94824.13;5045603;28;20420;-76
2022/11/06 04:23:40;;;;;;;;;;;;;;;12.68;68.18;94843.06;5077308;28;20158;-76
2022/11/06 04:26:34;;;;;;;21.13;10.48;;;;;;;12.38;69.07;94804.50;5012116;28;19924;-76
2022/11/06 04:29:21;;;;;;;33.83;12.43;;;;;;;12.65;68.96;94839.13;5018163;28;20037;-76
2022/11/06 04:31:53;;;;;;;24.92;11.23;;;;;;;12.70;69.06;94844.34;5033113;28;20028;-76
2022/11/06 04:34:32;;;;;;;;;;;;;;;12.74;69.11;94844.53;5033331;28;20037;-76
2022/11/06 04:37:05;;;;;;;22.88;12.13;;;;;;;12.79;68.80;94846.31;5019758;28;19921;-76
2022/11/06 04:39:58;;;;;;;23.70;11.30;;;;;;;12.49;68.88;94805.91;5063205;28;20486;-76
2022/11/06 04:42:53;;;;;;;18.58;10.98;;;;;;;12.83;69.00;94842.75;5070749;28;20040;-76
2022/11/06 04:45:31;;;;;;;26.35;12.13;;;;;;;12.64;69.44;94821.59;5066117;28;20129;-76
2022/11/06 04:47:58;;;;;;;23.42;13.05;;;;;;;12.83;69.45;94841.97;5069957;28;20131;-76
2022/11/06 04:50:26;;;;;;;29.67;12.75;;;;;;;12.67;70.06;94818.31;5059104;28;20032;-76
2022/11/06 04:52:54;;;;;;;23.73;12.80;;;;;;;12.44;70.56;94795.34;5051482;28;20040;-76
2022/11/06 04:55:21;;;;;;;29.70;12.88;;;;;;;12.53;71.04;94816.72;5051036;28;20182;-76
2022/11/06 04:57:46;;;;;;;24.30;13.13;;;;;;;12.39;71.32;94795.44;5050064;28;20071;-76
2022/11/06 05:00:13;;;;;;;23.40;13.05;;;;;;;12.57;72.41;94847.78;5050697;28;20432;-76
2022/11/06 05:02:39;;;;;;;31.60;14.88;;;;;;;12.48;73.18;94844.22;5050063;28;20503;-76
2022/11/06 05:05:05;;;;;;;26.40;12.82;;;;;;;12.54;73.02;94855.53;5050071;28;20129;-76
2022/11/06 05:07:31;;;;;;;28.63;12.98;;;;;;;12.63;72.87;94859.91;5031731;28;20487;-76
2022/11/06 05:09:56;;;;;;;29.02;14.52;;;;;;;12.22;72.61;94797.88;5050359;28;20128;-76
2022/11/06 05:12:21;;;;;;;33.28;14.32;;;;;;;12.76;72.30;94864.44;5029043;28;20073;-76
2022/11/06 05:14:47;;;;;;;31.50;13.50;;;;;;;12.46;72.45;94821.66;5036977;28;20051;-76
2022/11/06 05:17:12;;;;;;;31.80;13.45;;;;;;;12.49;72.37;94821.06;5032388;28;20059;-76
2022/11/06 05:19:38;;;;;;;27.95;14.52;;;;;;;12.84;72.05;94876.28;5049817;28;20024;-75
2022/11/06 05:24:47;;;;;;;25.63;13.13;;;;;;;12.87;71.89;94881.03;5049668;28;20091;-76
2022/11/06 05:27:13;;;;;;;27.70;13.15;;;;;;;12.63;72.54;94862.56;5070065;28;20063;-77
2022/11/06 05:29:39;;;;;;;23.55;12.75;;;;;;;12.75;71.94;94876.16;5069778;28;20072;-76
2022/11/06 05:32:04;;;;;;;29.50;13.32;;;;;;;12.97;71.87;94898.69;5070237;28;20094;-76
2022/11/06 05:34:30;;;;;;;24.95;13.27;;;;;;;12.97;71.44;94899.44;5033442;28;20033;-76
2022/11/06 05:36:56;;;;;;;22.65;12.57;;;;;;;12.97;71.63;94896.78;5068803;28;20039;-76
2022/11/06 05:39:22;;;;;;;32.70;14.73;;;;;;;12.74;72.32;94876.47;5069534;28;20119;-76
2022/11/06 05:41:47;;;;;;;31.00;13.77;;;;;;;12.13;72.91;94795.09;5069767;28;20471;-76
2022/11/06 05:44:13;;;;;;;24.42;14.25;;;;;;;12.57;73.00;94871.72;5070041;28;20384;-76
2022/11/06 05:46:39;;;;;;;25.63;13.07;;;;;;;12.81;72.43;94886.75;5070091;28;20509;-76
2022/11/06 05:49:05;;;;;;;35.33;15.15;;;;;;;12.98;72.13;94903.69;5050977;28;20040;-76
2022/11/06 05:51:30;;;;;;;27.88;13.38;;;;;;;13.04;71.84;94913.19;5070564;28;20044;-76
2022/11/06 05:53:55;;;;;;;26.13;13.60;;;;;;;13.04;72.03;94917.72;5060139;28;20450;-76
2022/11/06 05:56:21;;;;;;;31.00;14.38;;;;;;;12.77;71.84;94867.91;5061253;28;20024;-76
2022/11/06 05:58:46;;;;;;;40.50;14.88;;;;;;;13.16;71.57;94923.38;5057862;28;20037;-76
2022/11/06 06:01:12;;;;;;;27.15;14.77;;;;;;;12.79;71.43;94870.28;5062027;28;20035;-76
2022/11/06 06:03:37;;;;;;;28.80;14.45;;;;;;;13.08;71.55;94913.38;5069240;28;20153;-76
2022/11/06 06:06:03;;;;;;;29.75;15.77;;;;;;;13.27;71.40;94935.41;5069334;28;20040;-76
2022/11/06 06:08:28;;;;;;;33.38;14.82;;;;;;;12.96;71.26;94878.47;5069696;28;20052;-76
2022/11/06 06:10:54;;;;;;;31.83;14.43;;;;;;;13.19;71.97;94928.13;5068919;28;20048;-76
2022/11/06 06:13:19;;;;;;;28.98;14.80;;;;;;;12.93;71.48;94887.03;5053012;28;20024;-76
2022/11/06 06:15:45;;;;;;;31.55;14.40;;;;;;;12.98;71.29;94882.41;5051508;28;20115;-76
2022/11/06 06:18:10;;;;;;;35.25;13.80;;;;;;;13.04;71.24;94888.44;5050490;28;20402;-76
2022/11/06 06:20:36;;;;;;;29.27;14.13;;;;;;;13.14;71.31;94905.03;5050625;28;20028;-76
2022/11/06 06:23:02;;;;;;;27.98;14.98;;;;;;;12.95;72.43;94906.16;5051989;28;20033;-76
2022/11/06 06:25:29;;;;;;;29.45;15.90;;;;;;;13.37;72.14;94947.72;5055542;28;20053;-76
2022/11/06 06:27:55;;;;;;;30.73;15.82;;;;;;;13.44;72.03;94958.78;5054735;28;20043;-76
2022/11/06 06:30:22;;;;;;;28.33;17.00;;;;;;;13.34;71.94;94938.47;5066396;28;20029;-76
2022/11/06 06:32:48;;;;;;;30.17;16.33;;;;;;;13.53;72.03;94954.34;5059538;28;20111;-76
2022/11/06 06:35:14;;;;;;;35.67;17.77;;;;;;;13.28;72.12;94923.66;5046170;28;20696;-76
2022/11/06 06:37:39;;;;;;;39.72;16.08;;;;;;;13.44;72.83;94948.13;5031028;28;20029;-76
2022/11/06 06:40:05;;;;;;;36.10;18.30;;;;;;;13.19;72.89;94911.34;5062050;28;20056;-76
2022/11/06 06:42:31;;;;;;;35.53;17.05;;;;;;;13.19;72.37;94900.69;5068844;28;20028;-75
2022/11/06 06:44:57;;;;;;;37.83;16.38;;;;;;;13.49;72.54;94956.03;5068770;28;20036;-76
2022/11/06 06:47:22;;;;;;;29.15;16.58;;;;;;;13.58;72.03;94959.56;5033483;28;20410;-76
2022/11/06 06:49:48;;;;;;;29.13;15.75;;;;;;;13.38;72.27;94943.97;5049297;28;20465;-76
2022/11/06 06:52:14;;;;;;;24.63;16.00;;;;;;;13.48;71.83;94944.59;5068506;28;20028;-76
2022/11/06 06:54:40;;;;;;;34.63;15.65;;;;;;;13.42;71.19;94937.00;5050531;28;20025;-76
2022/11/06 06:57:07;;;;;;;36.03;16.67;;;;;;;13.25;71.32;94902.16;5068723;28;20064;-76
2022/11/06 06:59:32;;;;;;;32.38;16.77;;;;;;;13.12;70.83;94882.44;5069066;28;20017;-76
2022/11/06 07:01:58;;;;;;;32.58;17.20;;;;;;;13.88;70.63;94977.59;5068446;28;20407;-76
2022/11/06 07:04:23;;;;;;;35.85;17.08;;;;;;;13.48;71.44;94947.25;5068535;28;20541;-76
2022/11/06 07:06:48;;;;;;;32.92;16.15;;;;;;;13.83;70.87;94983.03;5069206;28;20039;-76
2022/11/06 07:09:14;;;;;;;36.78;16.45;;;;;;;13.71;70.59;94963.31;5076252;28;20115;-76
2022/11/06 07:11:40;;;;;;;31.13;16.23;;;;;;;13.95;70.19;95000.41;5047408;28;20029;-76
2022/11/06 07:14:05;;;;;;;30.27;15.60;;;;;;;13.81;70.47;94976.41;5040098;28;20028;-76
2022/11/06 07:16:31;;;;;;;26.55;16.45;;;;;;;13.48;70.41;94907.28;5047302;28;20031;-76
2022/11/06 07:18:57;;;;;;;27.77;16.50;;;;;;;14.01;70.38;94999.22;5063418;28;20036;-76
2022/11/06 07:21:23;;;;;;;29.02;17.05;;;;;;;13.84;70.79;94973.16;5055320;28;20059;-76
2022/11/06 07:23:49;;;;;;;34.45;17.05;;;;;;;14.06;70.02;94996.44;5065380;28;20434;-76
2022/11/06 07:26:15;;;;;;;28.13;16.10;;;;;;;13.57;70.43;94917.25;5068394;28;20045;-76
2022/11/06 07:28:40;;;;;;;38.38;16.90;;;;;;;13.98;70.51;94984.59;5068978;28;20066;-76
2022/11/06 07:31:07;;;;;;;34.45;16.77;;;;;;;14.16;70.41;95004.22;5072231;28;20025;-76
2022/11/06 07:33:33;;;;;;;36.08;16.90;;;;;;;14.20;70.59;95003.31;5071668;28;20017;-76
2022/11/06 07:36:08;;;;;;;28.92;17.38;;;;;;;14.01;69.95;94973.34;5053751;28;20036;-76
2022/11/06 07:38:34;;;;;;;32.13;16.77;;;;;;;13.82;70.03;94936.13;5037609;28;20029;-76
2022/11/06 07:41:04;;;;;;;28.00;16.90;;;;;;;14.23;69.59;94985.94;5061565;28;20033;-75
2022/11/06 07:43:31;;;;;;;36.95;19.15;;;;;;;14.38;70.01;95016.81;5071629;28;20081;-76
2022/11/06 07:46:01;;;;;;;38.85;18.70;;;;;;;14.30;69.35;94980.97;5072325;28;20036;-76
2022/11/06 07:48:28;;;;;;;41.63;18.08;;;;;;;14.17;69.12;94955.13;5055109;28;20458;-76
2022/11/06 07:50:53;;;;;;;32.22;17.88;;;;;;;14.51;69.07;95019.47;5057717;28;20056;-76
2022/11/06 07:53:19;;;;;;;32.30;17.50;;;;;;;14.62;68.81;95028.03;5055014;28;20487;-76
2022/11/06 07:55:52;;;;;;;35.20;18.35;;;;;;;14.57;69.30;95018.25;5067185;28;20082;-76
2022/11/06 07:58:19;;;;;;;36.70;18.98;;;;;;;14.63;68.43;95018.94;5072148;28;20455;-76
2022/11/06 08:00:49;;;;;;;31.58;16.58;;;;;;;14.66;68.48;95016.44;5071924;28;20040;-76
2022/11/06 08:03:14;;;;;;;37.00;17.60;;;;;;;14.70;68.34;95021.97;5070856;28;20036;-76
2022/11/06 08:05:40;;;;;;;34.58;17.55;;;;;;;14.58;68.17;95011.03;5071701;28;20025;-76
2022/11/06 08:08:06;;;;;;;34.05;16.80;;;;;;;14.46;67.62;94986.78;5053655;28;20040;-76
2022/11/06 08:10:31;;;;;;;32.42;16.80;;;;;;;14.40;68.10;94974.66;5071912;28;20033;-76
2022/11/06 08:12:59;;;;;;;38.10;18.33;;;;;;;14.51;68.64;94997.31;5065669;28;20043;-76
2022/11/06 08:15:25;;;;;;;37.70;17.23;;;;;;;14.55;68.54;95000.97;5064777;28;20024;-76
2022/11/06 08:17:50;;;;;;;31.35;18.00;;;;;;;14.70;70.25;95030.00;5090845;28;20393;-76
2022/11/06 08:20:16;;;;;;;29.10;18.63;;;;;;;14.41;70.15;94993.03;5073079;28;20035;-76
2022/11/06 08:22:41;;;;;;;32.35;18.60;;;;;;;14.44;69.96;95000.41;5090736;28;20032;-76
2022/11/06 08:25:07;;;;;;;36.35;20.92;;;;;;;14.31;70.67;95009.22;5090076;28;20555;-76
2022/11/06 08:27:33;;;;;;;34.30;20.13;;;;;;;14.32;70.55;94988.69;5090365;28;20032;-76
2022/11/06 08:29:58;;;;;;;42.30;23.08;;;;;;;14.40;70.78;95031.47;5064592;28;20150;-76
2022/11/06 08:32:24;;;;;;;43.38;23.83;;;;;;;14.54;71.63;95047.44;5065501;28;20040;-76
2022/11/06 08:34:49;;;;;;;41.72;22.75;;;;;;;14.15;73.85;95026.63;5055052;28;20556;-76
2022/11/06 08:37:14;;;;;;;48.00;22.85;;;;;;;14.28;75.61;95055.94;5085545;28;20028;-77
2022/11/06 08:39:40;;;;;;;47.22;25.77;;;;;;;14.14;77.07;95047.19;5090608;28;20440;-76
2022/11/06 08:42:06;;;;;;;42.03;24.63;;;;;;;14.09;78.96;95062.50;5087117;28;20028;-76
2022/11/06 08:44:31;;;;;;;43.72;24.67;;;;;;;13.74;79.48;95022.13;5050131;28;20029;-77
2022/11/06 08:46:56;;;;;;;41.97;25.20;;;;;;;13.48;79.71;94981.09;5068478;28;20025;-76
2022/11/06 08:49:22;;;;;;;47.63;25.30;;;;;;;13.69;79.72;95000.13;5084790;28;20394;-76
2022/11/06 08:51:47;;;;;;;49.88;25.33;;;;;;;13.75;79.99;95025.59;5070873;28;20028;-76
2022/11/06 08:54:13;;;;;;;40.67;24.38;;;;;;;13.67;79.88;95016.41;5052629;28;20119;-76
2022/11/06 08:56:38;;;;;;;41.72;26.30;;;;;;;13.59;80.19;94994.97;5070167;28;20031;-76
2022/11/06 08:59:03;;;;;;;41.83;24.02;;;;;;;13.91;80.54;95046.31;5078131;28;20122;-76
2022/11/06 09:01:29;;;;;;;48.42;26.17;;;;;;;13.73;81.72;95022.44;5086064;28;20102;-76
2022/11/06 09:03:56;;;;;;;43.35;26.33;;;;;;;13.79;80.89;95016.72;5086896;28;20070;-76
2022/11/06 09:06:21;;;;;;;42.00;26.73;;;;;;;14.07;80.74;95048.69;5066540;28;20039;-76
2022/11/06 09:08:47;;;;;;;39.00;26.90;;;;;;;14.19;80.73;95059.63;5044994;28;20032;-76
2022/11/06 09:11:12;;;;;;;40.60;24.67;;;;;;;13.99;81.28;95022.72;5070227;28;20122;-76
2022/11/06 09:13:38;;;;;;;42.20;26.42;;;;;;;14.20;82.11;95053.19;5037246;28;20037;-76
2022/11/06 09:16:05;;;;;;;44.78;25.73;;;;;;;14.03;82.19;95034.38;5065809;28;20040;-76
2022/11/06 09:18:30;;;;;;;40.80;24.10;;;;;;;14.36;81.68;95073.13;5070389;28;20514;-76
2022/11/06 09:20:57;;;;;;;36.30;22.10;;;;;;;14.25;80.61;95067.25;5032986;28;20071;-76
2022/11/06 09:23:23;;;;;;;33.28;22.85;;;;;;;14.08;81.68;95039.59;5051132;28;20037;-77
2022/11/06 09:25:48;;;;;;;35.80;24.30;;;;;;;14.22;82.00;95078.50;5033863;28;20064;-78
2022/11/06 09:28:14;;;;;;;36.45;21.60;;;;;;;14.12;81.61;95078.69;5052168;28;20028;-76
2022/11/06 09:30:39;;;;;;;31.02;20.30;;;;;;;13.67;81.24;94999.63;5069501;28;20037;-76
2022/11/06 09:33:05;;;;;;;31.80;21.08;;;;;;;13.66;81.17;95020.16;5045685;28;20021;-76
2022/11/06 09:35:33;;;;;;;33.83;20.83;;;;;;;14.09;81.51;95078.50;5064063;28;20067;-76
2022/11/06 09:38:06;;;;;;;28.10;19.00;;;;;;;13.75;81.59;95038.91;5070956;28;20066;-76
2022/11/06 09:40:32;;;;;;;23.95;17.70;;;;;;;14.08;82.19;95080.38;5047793;28;20021;-76
2022/11/06 09:43:13;;;;;;;27.20;17.90;;;;;;;14.04;82.26;95081.25;5043122;28;20039;-76
2022/11/06 09:45:40;;;;;;;29.75;18.48;;;;;;;13.99;82.84;95082.16;5069414;28;20036;-76
2022/11/06 09:48:08;;;;;;;23.67;17.67;;;;;;;14.14;82.50;95081.84;5069836;28;20040;-76
2022/11/06 09:50:41;;;;;;;28.38;17.58;;;;;;;14.13;81.78;95082.16;5069542;28;20032;-76
2022/11/06 09:53:38;;;;;;;26.92;17.30;;;;;;;13.88;81.55;95044.22;5069398;28;20021;-76
2022/11/06 09:56:05;;;;;;;22.60;16.23;;;;;;;13.91;82.12;95067.66;5069172;28;20056;-76
2022/11/06 09:58:36;;;;;;;22.42;15.63;;;;;;;14.16;81.75;95085.03;5069441;28;20105;-76
2022/11/06 10:01:16;;;;;;;20.02;15.30;;;;;;;14.19;81.41;95083.63;5078146;28;20540;-76
2022/11/06 10:03:58;;;;;;;21.00;15.43;;;;;;;14.05;82.11;95074.84;5041516;28;20561;-76
2022/11/06 10:06:24;;;;;;;28.58;16.30;;;;;;;14.08;81.93;95055.59;5048817;28;20405;-76
2022/11/06 10:08:53;;;;;;;20.85;15.27;;;;;;;14.00;81.70;95049.09;5068824;28;20071;-76
2022/11/06 10:11:18;;;;;;;22.15;16.08;;;;;;;14.34;81.41;95079.88;5051251;28;20465;-76
2022/11/06 10:14:06;;;;;;;26.70;17.63;;;;;;;14.38;80.90;95072.84;5069059;28;20101;-76
2022/11/06 10:16:45;;;;;;;29.90;17.17;;;;;;;14.30;81.69;95077.00;5043135;28;20068;-76
2022/11/06 10:19:30;;;;;;;24.80;15.10;;;;;;;14.34;81.36;95078.00;5059678;28;20094;-76
2022/11/06 10:22:06;;;;;;;28.27;15.65;;;;;;;14.37;81.38;95085.38;5036389;28;20123;-76
2022/11/06 10:25:07;;;;;;;21.45;15.68;;;;;;;14.41;81.14;95081.06;5052617;28;20470;-77
2022/11/06 10:27:41;;;;;;;18.90;13.53;;;;;;;14.46;81.13;95072.16;5033902;28;20095;-76
2022/11/06 10:30:12;;;;;;;21.23;15.23;;;;;;;13.88;80.69;94995.50;5062303;28;20044;-76
2022/11/06 10:33:09;;;;;;;20.33;13.50;;;;;;;14.27;81.18;95042.91;5036478;28;20025;-77
2022/11/06 10:35:45;;;;;;;21.15;13.73;;;;;;;14.34;80.92;95055.88;5050802;28;20400;-76
2022/11/06 10:38:17;;;;;;;22.50;12.35;;;;;;;14.34;81.63;95078.00;5064912;28;20091;-77
2022/11/06 10:40:47;;;;;;;12.88;10.82;;;;;;;14.13;81.45;95047.47;5068900;28;20079;-77
2022/11/06 10:43:28;;;;;;;16.97;11.83;;;;;;;14.47;81.03;95079.09;5068621;28;20068;-76
2022/11/06 10:45:59;;;;;;;12.10;10.13;;;;;;;14.50;80.70;95081.94;5046285;28;20084;-76
2022/11/06 10:48:31;;;;;;;12.52;9.27;;;;;;;14.42;80.73;95077.28;5055356;28;20032;-76
2022/11/06 10:50:56;;;;;;;18.85;10.07;;;;;;;14.54;80.46;95076.78;5051386;28;20043;-77
2022/11/06 10:53:55;;;;;;;14.40;9.75;;;;;;;14.33;80.44;95041.72;5060028;28;20033;-77
2022/11/06 10:56:29;;;;;;;14.80;11.00;;;;;;;14.65;80.39;95086.13;5063843;28;20045;-77
2022/11/06 10:58:54;;;;;;;21.05;13.20;;;;;;;14.64;80.35;95088.03;5033502;28;20036;-76
2022/11/06 11:01:20;;;;;;;21.08;15.40;;;;;;;14.61;81.48;95079.84;5086108;28;20531;-76
2022/11/06 11:03:46;;;;;;;20.13;14.57;;;;;;;14.35;82.09;95041.41;5051439;28;20025;-77
2022/11/06 11:06:12;;;;;;;19.80;13.73;;;;;;;14.40;81.74;95054.69;5091417;28;20059;-76
2022/11/06 11:08:45;;;;;;;19.38;13.18;;;;;;;14.55;82.66;95084.50;5072508;28;20522;-77
2022/11/06 11:11:14;;;;;;;20.55;12.20;;;;;;;14.60;82.50;95088.94;5049870;28;20032;-77
2022/11/06 11:13:40;;;;;;;19.27;10.88;;;;;;;14.46;82.55;95072.16;5040765;28;20060;-77
2022/11/06 11:16:24;;;;;;;17.75;10.85;;;;;;;14.53;81.98;95093.88;5072179;28;20037;-77
2022/11/06 11:18:50;;;;;;;19.05;11.70;;;;;;;14.42;82.36;95087.19;5072660;28;20051;-77
2022/11/06 11:21:18;;;;;;;16.67;11.32;;;;;;;14.41;82.11;95082.94;5071792;28;20147;-77
2022/11/06 11:23:45;;;;;;;22.20;13.30;;;;;;;14.25;82.89;95072.56;5072645;28;20032;-77
2022/11/06 11:26:17;;;;;;;19.88;12.80;;;;;;;14.29;82.85;95084.22;5037709;28;20144;-77
2022/11/06 11:28:48;;;;;;;17.67;13.50;;;;;;;14.27;82.93;95072.25;5052318;28;20125;-76
2022/11/06 11:31:16;;;;;;;21.08;14.52;;;;;;;13.78;82.43;94971.69;5054325;28;20037;-77
2022/11/06 11:33:51;;;;;;;20.15;15.73;;;;;;;14.54;82.63;95077.59;5072320;28;20094;-77
2022/11/06 11:36:16;;;;;;;21.42;15.25;;;;;;;14.54;82.63;95068.78;5048372;28;20027;-77
2022/11/06 11:38:42;;;;;;;26.42;18.25;;;;;;;14.11;82.68;95021.09;5067439;28;20024;-76
2022/11/06 11:41:08;;;;;;;31.33;19.05;;;;;;;14.43;81.84;95072.75;5091479;28;20478;-76
2022/11/06 11:43:34;;;;;;;26.83;17.33;;;;;;;14.37;82.03;95063.25;5070363;28;20091;-76